createdAt,value
2018-10-02T00:01:25.902Z,96228.18
2018-10-02T00:03:55.872Z,96225.75
2018-10-02T00:06:25.503Z,96225.81
2018-10-02T00:08:55.129Z,96233.04
2018-10-02T00:11:29.599Z,96228.47
2018-10-02T00:14:04.661Z,96226.27
2018-10-02T00:16:34.309Z,96226.09
2018-10-02T00:19:03.963Z,96229.92
2018-10-02T00:21:33.640Z,96230.08
2018-10-02T00:24:03.309Z,96232.28
2018-10-02T00:26:33.007Z,96233.09
2018-10-02T00:29:02.708Z,96233.25
2018-10-02T00:31:33.987Z,96236.61
2018-10-02T00:34:04.771Z,96239.06
2018-10-02T00:36:34.445Z,96231.19
2018-10-02T00:39:05.397Z,96226.75
2018-10-02T00:41:41.707Z,96237.02
2018-10-02T00:44:13.250Z,96238.23
2018-10-02T00:46:43.325Z,96239.55
2018-10-02T00:49:12.957Z,96238.97
2018-10-02T00:51:42.625Z,96234.13
2018-10-02T00:54:12.347Z,96241.06
2018-10-02T00:56:41.980Z,96243.31
2018-10-02T00:59:11.692Z,96239.96
2018-10-02T01:01:41.748Z,96240.25
2018-10-02T01:04:11.453Z,96240.25
2018-10-02T01:06:41.085Z,96239.27
2018-10-02T01:09:12.760Z,96240.19
2018-10-02T01:11:43.276Z,96235.23
2018-10-02T01:14:13.301Z,96243.47
2018-10-02T01:16:43.461Z,96243.83
2018-10-02T01:19:13.113Z,96246.13
2018-10-02T01:21:42.725Z,96243.83
2018-10-02T01:24:12.828Z,96250.58
2018-10-02T01:26:42.505Z,96233.23
2018-10-02T01:29:12.153Z,96236.92
2018-10-02T01:31:41.812Z,96236.97
2018-10-02T01:34:11.891Z,96231.25
2018-10-02T01:36:41.623Z,96236.27
2018-10-02T01:39:11.337Z,96239.29
2018-10-02T01:41:41.100Z,96244.53
2018-10-02T01:44:11.167Z,96234.06
2018-10-02T01:46:40.855Z,96240.00
2018-10-02T01:49:10.492Z,96227.61
2018-10-02T01:51:42.192Z,96238.45
2018-10-02T01:54:11.796Z,96243.87
2018-10-02T01:56:42.308Z,96235.80
2018-10-02T01:59:11.924Z,96230.56
2018-10-02T02:01:42.139Z,96227.79
2018-10-02T02:04:11.777Z,96236.92
2018-10-02T02:06:41.452Z,96235.08
2018-10-02T02:09:12.439Z,96232.88
2018-10-02T02:11:42.066Z,96236.91
2018-10-02T02:14:13.997Z,96244.80
2018-10-02T02:16:43.777Z,96242.44
2018-10-02T02:19:13.418Z,96239.12
2018-10-02T02:21:43.011Z,96239.23
2018-10-02T02:24:12.649Z,96246.05
2018-10-02T02:26:42.271Z,96243.25
2018-10-02T02:29:14.781Z,96242.03
2018-10-02T02:31:45.324Z,96246.71
2018-10-02T02:34:14.953Z,96250.77
2018-10-02T02:36:44.657Z,96252.98
2018-10-02T02:39:14.633Z,96247.75
2018-10-02T02:41:44.295Z,96259.40
2018-10-02T02:44:13.973Z,96262.45
2018-10-02T02:46:43.641Z,96256.30
2018-10-02T02:49:20.159Z,96265.70
2018-10-02T02:51:49.990Z,96263.86
2018-10-02T02:54:42.037Z,96267.03
2018-10-02T02:57:12.116Z,96266.63
2018-10-02T02:59:41.701Z,96271.56
2018-10-02T03:02:11.369Z,96263.83
2018-10-02T03:04:41.034Z,96269.20
2018-10-02T03:07:10.995Z,96265.52
2018-10-02T03:09:40.617Z,96262.20
2018-10-02T03:12:10.301Z,96266.58
2018-10-02T03:14:39.912Z,96260.35
2018-10-02T03:17:09.667Z,96270.61
2018-10-02T03:19:39.312Z,96268.10
2018-10-02T03:22:09.428Z,96269.87
2018-10-02T03:24:39.172Z,96268.88
2018-10-02T03:27:08.800Z,96266.58
2018-10-02T03:29:38.554Z,96264.55
2018-10-02T03:32:09.728Z,96271.45
2018-10-02T03:34:39.680Z,96267.62
2018-10-02T03:37:09.502Z,96267.98
2018-10-02T03:39:39.486Z,96265.03
2018-10-02T03:42:09.175Z,96265.84
2018-10-02T03:44:38.810Z,96266.69
2018-10-02T03:47:08.980Z,96263.12
2018-10-02T03:49:38.668Z,96264.48
2018-10-02T03:52:08.397Z,96264.19
2018-10-02T03:54:38.604Z,96265.30
2018-10-02T03:57:10.205Z,96269.91
2018-10-02T03:59:41.260Z,96267.14
2018-10-02T04:02:11.280Z,96264.27
2018-10-02T04:04:40.945Z,96269.69
2018-10-02T04:07:10.597Z,96265.59
2018-10-02T04:09:40.580Z,96269.43
2018-10-02T04:12:10.315Z,96261.24
2018-10-02T04:14:39.970Z,96263.23
2018-10-02T04:17:10.483Z,96264.27
2018-10-02T04:19:40.148Z,96264.08
2018-10-02T04:22:09.928Z,96267.66
2018-10-02T04:24:39.540Z,96264.41
2018-10-02T04:27:09.160Z,96256.16
2018-10-02T04:29:38.838Z,96255.02
2018-10-02T04:32:09.052Z,96260.02
2018-10-02T04:34:38.673Z,96258.92
2018-10-02T04:37:11.604Z,96256.38
2018-10-02T04:39:41.252Z,96258.70
2018-10-02T04:42:11.548Z,96262.75
2018-10-02T04:44:42.384Z,96270.76
2018-10-02T04:47:14.372Z,96268.62
2018-10-02T04:49:44.012Z,96266.55
2018-10-02T04:52:13.658Z,96267.44
2018-10-02T04:55:17.573Z,96270.53
2018-10-02T04:57:47.263Z,96272.08
2018-10-02T05:00:17.713Z,96270.98
2018-10-02T05:02:47.321Z,96271.38
2018-10-02T05:05:18.895Z,96273.41
2018-10-02T05:07:48.494Z,96274.87
2018-10-02T05:10:19.213Z,96277.91
2018-10-02T05:12:48.851Z,96272.93
2018-10-02T05:15:18.491Z,96278.31
2018-10-02T05:17:48.632Z,96277.50
2018-10-02T05:20:18.354Z,96276.47
2018-10-02T05:22:48.014Z,96275.55
2018-10-02T05:25:19.993Z,96278.42
2018-10-02T05:27:49.662Z,96282.48
2018-10-02T05:30:20.724Z,96281.89
2018-10-02T05:32:52.207Z,96289.86
2018-10-02T05:35:22.372Z,96283.81
2018-10-02T05:37:53.919Z,96290.03
2018-10-02T05:40:24.421Z,96295.56
2018-10-02T05:42:56.338Z,96296.23
2018-10-02T05:45:26.513Z,96306.36
2018-10-02T05:47:56.277Z,96316.41
2018-10-02T05:50:30.465Z,96319.97
2018-10-02T05:53:01.805Z,96319.65
2018-10-02T05:55:32.397Z,96318.50
2018-10-02T05:58:02.094Z,96317.39
2018-10-02T06:00:32.114Z,96319.67
2018-10-02T06:03:09.235Z,96316.06
2018-10-02T06:05:41.295Z,96324.61
2018-10-02T06:08:13.422Z,96324.02
2018-10-02T06:10:43.805Z,96318.94
2018-10-02T06:13:19.632Z,96321.57
2018-10-02T06:15:49.312Z,96322.67
2018-10-02T06:18:20.576Z,96331.45
2018-10-02T06:20:52.408Z,96343.69
2018-10-02T06:23:22.646Z,96341.67
2018-10-02T06:25:53.266Z,96350.00
2018-10-02T06:28:22.901Z,96347.18
2018-10-02T06:30:53.129Z,96345.34
2018-10-02T06:33:25.411Z,96346.73
2018-10-02T06:35:56.737Z,96337.89
2018-10-02T06:38:31.385Z,96344.30
2018-10-02T06:41:03.846Z,96332.16
2018-10-02T06:43:37.293Z,96336.73
2018-10-02T06:46:08.307Z,96337.79
2018-10-02T06:48:38.533Z,96340.88
2018-10-02T06:51:09.049Z,96329.45
2018-10-02T06:53:40.033Z,96333.00
2018-10-02T06:56:10.733Z,96334.37
2018-10-02T06:58:41.373Z,96326.28
2018-10-02T07:01:12.431Z,96331.12
2018-10-02T07:03:44.309Z,96329.09
2018-10-02T07:06:15.964Z,96324.77
2018-10-02T07:08:45.657Z,96322.11
2018-10-02T07:11:16.792Z,96335.13
2018-10-02T07:13:51.059Z,96338.63
2018-10-02T07:16:22.339Z,96339.01
2018-10-02T07:18:57.413Z,96333.21
2018-10-02T07:21:28.833Z,96333.58
2018-10-02T07:24:03.213Z,96341.94
2018-10-02T07:26:34.139Z,96340.23
2018-10-02T07:29:12.049Z,96331.82
2018-10-02T07:31:46.346Z,96337.34
2018-10-02T07:37:14.937Z,96342.09
2018-10-02T07:39:45.417Z,96339.74
2018-10-02T07:42:18.584Z,96342.47
2018-10-02T07:44:51.943Z,96340.16
2018-10-02T07:47:22.067Z,96338.30
2018-10-02T07:52:36.306Z,96349.72
2018-10-02T07:55:10.120Z,96340.48
2018-10-02T07:57:47.206Z,96347.28
2018-10-02T08:00:27.146Z,96346.29
2018-10-02T08:03:04.235Z,96342.84
2018-10-02T08:05:35.173Z,96344.15
2018-10-02T08:08:07.417Z,96333.91
2018-10-02T08:10:37.310Z,96331.24
2018-10-02T08:13:13.075Z,96331.97
2018-10-02T08:15:56.063Z,96336.08
2018-10-02T08:18:32.417Z,96338.20
2018-10-02T08:21:08.224Z,96341.12
2018-10-02T08:23:47.324Z,96344.36
2018-10-02T08:26:21.323Z,96335.97
2018-10-02T08:28:53.370Z,96337.20
2018-10-02T08:31:26.713Z,96333.52
2018-10-02T08:34:07.504Z,96339.58
2018-10-02T08:36:40.130Z,96324.59
2018-10-02T08:39:16.512Z,96319.36
2018-10-02T08:41:48.534Z,96314.32
2018-10-02T08:44:18.645Z,96311.19
2018-10-02T08:46:50.631Z,96318.64
2018-10-02T08:49:26.928Z,96316.51
2018-10-02T08:51:57.524Z,96313.97
2018-10-02T08:54:32.917Z,96314.47
2018-10-02T08:57:04.344Z,96321.54
2018-10-02T08:59:40.978Z,96308.41
2018-10-02T09:02:13.785Z,96318.59
2018-10-02T09:04:44.235Z,96328.63
2018-10-02T09:07:16.126Z,96321.03
2018-10-02T09:09:46.450Z,96320.92
2018-10-02T09:12:16.231Z,96318.56
2018-10-02T09:14:49.046Z,96314.31
2018-10-02T09:17:20.393Z,96310.03
2018-10-02T09:19:55.194Z,96303.02
2018-10-02T09:22:28.404Z,96295.58
2018-10-02T09:24:59.589Z,96296.25
2018-10-02T09:27:47.795Z,96302.33
2018-10-02T09:30:26.871Z,96294.81
2018-10-02T09:35:09.402Z,96298.93
2018-10-02T09:37:50.705Z,96296.14
2018-10-02T09:40:28.465Z,96290.22
2018-10-02T09:43:03.383Z,96294.11
2018-10-02T09:45:38.189Z,96291.21
2018-10-02T09:48:13.693Z,96287.63
2018-10-02T09:50:48.970Z,96296.89
2018-10-02T09:53:19.287Z,96290.59
2018-10-02T09:55:49.790Z,96286.55
2018-10-02T09:58:22.522Z,96289.02
2018-10-02T10:01:00.265Z,96284.08
2018-10-02T10:03:30.783Z,96282.80
2018-10-02T10:06:02.020Z,96289.80
2018-10-02T10:08:37.869Z,96286.98
2018-10-02T10:11:09.966Z,96276.80
2018-10-02T10:13:41.387Z,96281.83
2018-10-02T10:16:14.412Z,96281.64
2018-10-02T10:18:45.178Z,96282.86
2018-10-02T10:21:24.088Z,96279.98
2018-10-02T10:23:58.402Z,96278.66
2018-10-02T10:26:30.850Z,96287.39
2018-10-02T10:29:06.660Z,96281.37
2018-10-02T10:31:39.566Z,96284.20
2018-10-02T10:34:12.169Z,96291.20
2018-10-02T10:36:44.665Z,96296.72
2018-10-02T10:39:18.636Z,96288.67
2018-10-02T10:41:52.190Z,96290.45
2018-10-02T10:44:27.744Z,96282.98
2018-10-02T10:46:57.452Z,96288.83
2018-10-02T10:49:30.752Z,96262.30
2018-10-02T10:52:01.948Z,96269.22
2018-10-02T10:54:36.870Z,96259.47
2018-10-02T10:57:06.808Z,96263.99
2018-10-02T10:59:42.961Z,96267.30
2018-10-02T11:02:12.593Z,96272.47
2018-10-02T11:04:44.435Z,96261.78
2018-10-02T11:07:14.319Z,96276.16
2018-10-02T11:09:46.292Z,96268.73
2018-10-02T11:12:16.274Z,96265.92
2018-10-02T11:14:53.438Z,96268.91
2018-10-02T11:17:26.454Z,96269.06
2018-10-02T11:19:58.734Z,96259.30
2018-10-02T11:22:33.495Z,96267.39
2018-10-02T11:25:06.036Z,96248.52
2018-10-02T11:27:38.615Z,96252.45
2018-10-02T11:30:08.850Z,96245.59
2018-10-02T11:32:40.268Z,96248.14
2018-10-02T11:35:10.369Z,96250.14
2018-10-02T11:37:41.258Z,96246.76
2018-10-02T11:40:12.909Z,96247.28
2018-10-02T11:48:54.756Z,96229.41
2018-10-02T11:51:26.213Z,96224.89
2018-10-02T11:54:00.016Z,96222.58
2018-10-02T11:59:16.463Z,96220.30
2018-10-02T12:05:51.047Z,96232.59
2018-10-02T12:08:45.926Z,96229.92
2018-10-02T12:17:05.421Z,96209.12
2018-10-02T12:19:41.165Z,96209.31
2018-10-02T12:22:16.510Z,96203.81
2018-10-02T12:25:03.246Z,96208.69
2018-10-02T12:27:35.443Z,96203.88
2018-10-02T12:30:21.181Z,96210.88
2018-10-02T12:32:53.057Z,96199.31
2018-10-02T12:35:25.966Z,96202.48
2018-10-02T12:37:57.203Z,96191.20
2018-10-02T12:40:31.242Z,96191.36
2018-10-02T12:43:05.788Z,96189.32
2018-10-02T12:45:37.847Z,96190.88
2018-10-02T12:48:08.450Z,96183.19
2018-10-02T12:50:38.424Z,96181.86
2018-10-02T12:53:08.873Z,96183.19
2018-10-02T12:55:40.672Z,96183.79
2018-10-02T12:58:12.943Z,96184.94
2018-10-02T13:00:45.444Z,96187.66
2018-10-02T13:03:15.442Z,96175.73
2018-10-02T13:06:13.310Z,96178.91
2018-10-02T13:08:44.515Z,96170.67
2018-10-02T13:11:14.375Z,96165.97
2018-10-02T13:13:46.660Z,96165.73
2018-10-02T13:16:20.266Z,96151.63
2018-10-02T13:18:53.252Z,96147.34
2018-10-02T13:21:24.905Z,96139.36
2018-10-02T13:24:05.473Z,96125.64
2018-10-02T13:26:36.780Z,96129.94
2018-10-02T13:29:08.662Z,96121.18
2018-10-02T13:31:41.668Z,96122.12
2018-10-02T13:34:15.995Z,96102.92
2018-10-02T13:36:48.373Z,96115.47
2018-10-02T13:39:22.785Z,96110.14
2018-10-02T13:41:57.212Z,96097.65
2018-10-02T13:44:33.251Z,96101.12
2018-10-02T13:47:07.171Z,96094.98
2018-10-02T13:49:40.500Z,96091.52
2018-10-02T13:52:12.112Z,96087.58
2018-10-02T13:54:42.767Z,96081.45
2018-10-02T13:57:15.897Z,96071.97
2018-10-02T13:59:46.557Z,96074.17
2018-10-02T14:02:17.848Z,96069.64
2018-10-02T14:04:48.693Z,96076.64
2018-10-02T14:07:19.409Z,96069.59
2018-10-02T14:09:49.597Z,96064.27
2018-10-02T14:12:20.075Z,96065.55
2018-10-02T14:14:54.526Z,96072.15
2018-10-02T14:17:27.770Z,96059.34
2018-10-02T14:20:02.286Z,96061.91
2018-10-02T14:22:40.541Z,96057.80
2018-10-02T14:25:16.134Z,96060.17
2018-10-02T14:27:50.585Z,96052.92
2018-10-02T14:30:55.656Z,96054.48
2018-10-02T14:33:30.652Z,96045.13
2018-10-02T14:40:18.370Z,96038.84
2018-10-02T14:42:50.394Z,96040.17
2018-10-02T14:45:22.849Z,96050.39
2018-10-02T14:47:58.038Z,96046.92
2018-10-02T14:50:31.577Z,96039.53
2018-10-02T14:53:06.216Z,96048.61
2018-10-02T14:55:41.185Z,96045.92
2018-10-02T14:58:19.585Z,96045.14
2018-10-02T15:00:53.332Z,96050.17
2018-10-02T15:03:25.101Z,96039.30
2018-10-02T15:05:56.636Z,96040.11
2018-10-02T15:08:29.392Z,96038.70
2018-10-02T15:11:03.533Z,96027.50
2018-10-02T15:13:35.408Z,96016.05
2018-10-02T15:16:09.623Z,96019.75
2018-10-02T15:18:40.883Z,96021.13
2018-10-02T15:21:16.455Z,96018.19
2018-10-02T15:23:50.765Z,96012.06
2018-10-02T15:26:40.461Z,96019.28
2018-10-02T15:29:14.174Z,96014.27
2018-10-02T15:31:44.850Z,96025.93
2018-10-02T15:34:15.672Z,96020.32
2018-10-02T15:37:13.176Z,96039.47
2018-10-02T15:39:46.346Z,96034.14
2018-10-02T15:42:18.753Z,96034.20
2018-10-02T15:44:57.354Z,96031.03
2018-10-02T15:47:28.434Z,96037.97
2018-10-02T15:49:59.926Z,96037.69
2018-10-02T15:52:35.737Z,96035.29
2018-10-02T15:55:06.520Z,96035.83
2018-10-02T15:57:42.970Z,96039.28
2018-10-02T16:00:15.714Z,96034.21
2018-10-02T16:02:45.894Z,96042.20
2018-10-02T16:05:18.276Z,96034.50
2018-10-02T16:07:53.176Z,96030.56
2018-10-02T16:10:29.072Z,96020.97
2018-10-02T16:13:00.255Z,96022.53
2018-10-02T16:15:45.310Z,96032.41
2018-10-02T16:18:24.783Z,96027.84
2018-10-02T16:20:59.554Z,96035.81
2018-10-02T16:23:37.004Z,96021.70
2018-10-02T16:26:13.546Z,96025.13
2018-10-02T16:28:45.949Z,96014.48
2018-10-02T16:31:18.561Z,96016.05
2018-10-02T16:33:49.136Z,96013.91
2018-10-02T16:36:20.461Z,96025.88
2018-10-02T16:38:51.228Z,96026.97
2018-10-02T16:41:24.953Z,96026.50
2018-10-02T16:43:57.627Z,96029.41
2018-10-02T16:46:37.428Z,96040.34
2018-10-02T16:49:13.317Z,96036.64
2018-10-02T16:51:56.049Z,96036.88
2018-10-02T16:54:26.135Z,96031.31
2018-10-02T16:56:59.599Z,96037.21
2018-10-02T16:59:36.431Z,96038.30
2018-10-02T17:02:11.735Z,96039.92
2018-10-02T17:04:55.234Z,96043.91
2018-10-02T17:07:26.286Z,96042.30
2018-10-02T17:09:59.330Z,96044.33
2018-10-02T17:15:31.377Z,96050.05
2018-10-02T17:18:03.839Z,96055.30
2018-10-02T17:20:37.329Z,96047.03
2018-10-02T17:23:13.142Z,96056.05
2018-10-02T17:25:50.063Z,96060.05
2018-10-02T17:28:26.164Z,96050.97
2018-10-02T17:31:00.904Z,96054.95
2018-10-02T17:33:35.483Z,96050.45
2018-10-02T17:36:11.828Z,96049.98
2018-10-02T17:38:46.597Z,96043.62
2018-10-02T17:41:58.374Z,96058.77
2018-10-02T17:44:46.632Z,96059.59
2018-10-02T17:48:23.539Z,96064.11
2018-10-02T17:51:10.692Z,96056.75
2018-10-02T17:53:47.189Z,96070.10
2018-10-02T17:56:19.069Z,96061.31
2018-10-02T17:58:56.074Z,96066.40
2018-10-02T18:01:31.391Z,96069.08
2018-10-02T18:04:14.251Z,96065.61
2018-10-02T18:09:58.695Z,96073.13
2018-10-02T18:12:35.007Z,96076.59
2018-10-02T18:15:17.612Z,96068.89
2018-10-02T18:18:08.494Z,96070.80
2018-10-02T18:20:49.233Z,96069.47
2018-10-02T18:23:25.850Z,96064.15
2018-10-02T18:26:09.507Z,96074.05
2018-10-02T18:28:47.426Z,96075.95
2018-10-02T18:31:29.402Z,96075.38
2018-10-02T18:37:01.838Z,96073.53
2018-10-02T18:42:21.766Z,96068.97
2018-10-02T18:44:53.950Z,96065.02
2018-10-02T18:50:22.650Z,96059.00
2018-10-02T18:53:02.107Z,96060.11
2018-10-02T18:55:42.396Z,96069.42
2018-10-02T18:58:22.937Z,96079.88
2018-10-02T19:01:04.477Z,96082.02
2018-10-02T19:06:41.264Z,96083.18
2018-10-02T19:09:22.692Z,96065.12
2018-10-02T19:12:02.208Z,96066.50
2018-10-02T19:14:59.737Z,96068.64
2018-10-02T19:17:42.837Z,96077.16
2018-10-02T19:20:30.505Z,96084.67
2018-10-02T19:23:05.459Z,96087.09
2018-10-02T19:25:46.164Z,96093.52
2018-10-02T19:28:23.195Z,96098.60
2018-10-02T19:31:05.931Z,96094.05
2018-10-02T19:33:53.564Z,96084.48
2018-10-02T19:36:31.764Z,96083.17
2018-10-02T19:39:35.006Z,96085.02
2018-10-02T19:42:30.662Z,96078.41
2018-10-02T19:45:14.213Z,96089.63
2018-10-02T19:48:02.888Z,96099.23
2018-10-02T19:50:34.331Z,96099.23
2018-10-02T19:53:11.199Z,96090.20
2018-10-02T19:55:47.404Z,96097.67
2018-10-02T19:58:26.350Z,96090.48
2018-10-02T20:01:00.152Z,96105.94
2018-10-02T20:03:38.380Z,96091.02
2018-10-02T20:06:19.469Z,96091.54
2018-10-02T20:11:44.299Z,96082.23
2018-10-02T20:14:29.336Z,96098.25
2018-10-02T20:17:09.306Z,96089.17
2018-10-02T20:19:41.328Z,96086.32
2018-10-02T20:22:19.666Z,96089.80
2018-10-02T20:24:51.393Z,96090.08
2018-10-02T20:30:07.448Z,96088.76
2018-10-02T20:32:40.666Z,96074.11
2018-10-02T20:35:14.547Z,96077.87
2018-10-02T20:37:49.030Z,96076.30
2018-10-02T20:40:20.777Z,96075.25
2018-10-02T20:43:14.713Z,96074.73
2018-10-02T20:45:47.539Z,96082.48
2018-10-02T20:48:29.784Z,96077.95
2018-10-02T20:51:12.525Z,96076.11
2018-10-02T20:53:56.259Z,96083.58
2018-10-02T21:00:15.017Z,96094.76
2018-10-02T21:05:30.445Z,96092.91
2018-10-02T21:10:57.976Z,96097.70
2018-10-02T21:13:33.387Z,96097.42
2018-10-02T21:16:11.458Z,96092.65
2018-10-02T21:18:43.834Z,96095.85
2018-10-02T21:21:19.242Z,96097.99
2018-10-02T21:26:37.328Z,96095.09
2018-10-02T21:34:09.588Z,96107.08
2018-10-02T21:36:46.437Z,96103.08
2018-10-02T21:39:18.569Z,96103.61
2018-10-02T21:41:49.325Z,96106.03
2018-10-02T21:44:22.605Z,96098.84
2018-10-02T21:47:02.006Z,96107.93
2018-10-02T21:49:37.482Z,96106.07
2018-10-02T21:52:34.845Z,96114.89
2018-10-02T21:55:07.127Z,96100.56
2018-10-02T21:57:42.425Z,96099.23
2018-10-02T22:00:16.184Z,96100.56
2018-10-02T22:02:49.967Z,96091.77
2018-10-02T22:05:22.011Z,96094.71
2018-10-02T22:07:52.306Z,96101.94
2018-10-02T22:10:37.965Z,96103.28
2018-10-02T22:13:16.402Z,96099.33
2018-10-02T22:15:49.229Z,96095.38
2018-10-02T22:18:25.395Z,96092.44
2018-10-02T22:21:00.957Z,96082.34
2018-10-02T22:23:35.258Z,96084.77
2018-10-02T22:26:13.150Z,96074.39
2018-10-02T22:28:45.020Z,96068.55
2018-10-02T22:31:19.327Z,96068.02
2018-10-02T22:33:58.956Z,96084.33
2018-10-02T22:36:36.499Z,96066.77
2018-10-02T22:39:12.254Z,96070.52
2018-10-02T22:44:24.322Z,96059.31
2018-10-02T22:46:55.217Z,96063.31
2018-10-02T22:49:26.431Z,96063.59
2018-10-02T22:52:04.502Z,96059.59
2018-10-02T22:54:36.309Z,96060.41
2018-10-02T22:57:07.817Z,96065.48
2018-10-02T22:59:43.198Z,96062.02
2018-10-02T23:02:20.274Z,96067.38
2018-10-02T23:04:52.548Z,96066.30
2018-10-02T23:07:23.655Z,96066.02
2018-10-02T23:09:57.416Z,96076.91
2018-10-02T23:12:30.298Z,96072.34
2018-10-02T23:15:01.681Z,96067.25
2018-10-02T23:17:33.380Z,96073.58
2018-10-02T23:22:41.614Z,96063.36
2018-10-02T23:25:13.411Z,96067.36
2018-10-02T23:27:44.309Z,96060.13
2018-10-02T23:33:33.380Z,96054.42
2018-10-02T23:36:04.560Z,96055.70
2018-10-02T23:38:37.450Z,96057.76
2018-10-02T23:41:07.969Z,96065.75
2018-10-02T23:43:37.947Z,96059.55
2018-10-02T23:46:40.552Z,96067.78
2018-10-02T23:52:25.424Z,96066.45
2018-10-02T23:54:56.193Z,96082.39
2018-10-02T23:57:26.787Z,96082.15
2018-10-02T23:59:57.501Z,96082.19
